Weather at Whisper Ranch Landing Strip [CLOSED]

Public forecast

Using degrees Fahrenheit for public forecast. Weather courtesy of forecast.io.

Closest aviation weather report (METAR) to Whisper Ranch Landing Strip

Closest report is Phoenix-Mesa-Gateway Airport, 5.0 nm (9.3 km) N. Retrieved 2021/06/19 19:50 UTC (27 minutes ago):

KIWA 191950Z 21010KT 10SM SKC 43/08 A2968

Closest aviation forecast (TAF) to Whisper Ranch Landing Strip

Closest forecast is Phoenix-Mesa-Gateway Airport, 5.0 nm (9.3 km) N. Retrieved 2021/06/19 18:42 UTC (2 hours ago):

TAF KIWA 191741Z 1918/2018 21008KT P6SM SKC FM191900 25012KT P6SM SKC FM192100 28013G20KT P6SM SKC FM200300 22010KT P6SM SKC FM200800 09005KT P6SM SKC FM201700 21010KT P6SM SKC